sensor_id;sensor_type;location;lat;lon;timestamp;P1;durP1;ratioP1;P2;durP2;ratioP2
14153;SDS011;7157;53.144;7.570;2023-07-28T00:06:24;26.05;;;8.55;;
14153;SDS011;7157;53.144;7.570;2023-07-28T00:16:26;18.20;;;7.80;;
14153;SDS011;7157;53.144;7.570;2023-07-28T00:26:31;17.40;;;7.35;;
14153;SDS011;7157;53.144;7.570;2023-07-28T00:36:34;14.68;;;6.38;;
14153;SDS011;7157;53.144;7.570;2023-07-28T00:46:39;20.10;;;7.20;;
14153;SDS011;7157;53.144;7.570;2023-07-28T00:56:42;18.00;;;7.28;;
14153;SDS011;7157;53.144;7.570;2023-07-28T01:06:47;17.45;;;7.30;;
14153;SDS011;7157;53.144;7.570;2023-07-28T01:16:59;19.83;;;7.90;;
14153;SDS011;7157;53.144;7.570;2023-07-28T01:27:03;26.25;;;9.10;;
14153;SDS011;7157;53.144;7.570;2023-07-28T01:37:06;24.45;;;8.38;;
14153;SDS011;7157;53.144;7.570;2023-07-28T01:47:10;28.10;;;10.52;;
14153;SDS011;7157;53.144;7.570;2023-07-28T01:57:13;29.42;;;9.65;;
14153;SDS011;7157;53.144;7.570;2023-07-28T02:07:17;30.88;;;11.05;;
14153;SDS011;7157;53.144;7.570;2023-07-28T02:17:20;29.83;;;10.10;;
14153;SDS011;7157;53.144;7.570;2023-07-28T02:27:24;26.65;;;10.15;;
14153;SDS011;7157;53.144;7.570;2023-07-28T02:37:26;32.30;;;9.25;;
14153;SDS011;7157;53.144;7.570;2023-07-28T02:47:30;41.60;;;12.20;;
14153;SDS011;7157;53.144;7.570;2023-07-28T02:57:33;41.35;;;13.65;;
14153;SDS011;7157;53.144;7.570;2023-07-28T03:07:38;31.98;;;11.70;;
14153;SDS011;7157;53.144;7.570;2023-07-28T03:17:41;30.90;;;12.05;;
14153;SDS011;7157;53.144;7.570;2023-07-28T03:27:45;29.63;;;11.52;;
14153;SDS011;7157;53.144;7.570;2023-07-28T03:37:48;36.45;;;12.15;;
14153;SDS011;7157;53.144;7.570;2023-07-28T03:47:52;30.02;;;11.93;;
14153;SDS011;7157;53.144;7.570;2023-07-28T03:57:55;26.45;;;10.10;;
14153;SDS011;7157;53.144;7.570;2023-07-28T04:07:59;25.00;;;9.82;;
14153;SDS011;7157;53.144;7.570;2023-07-28T04:18:04;35.03;;;11.55;;
14153;SDS011;7157;53.144;7.570;2023-07-28T04:28:08;32.78;;;11.20;;
14153;SDS011;7157;53.144;7.570;2023-07-28T04:38:11;28.40;;;10.77;;
14153;SDS011;7157;53.144;7.570;2023-07-28T04:48:15;28.02;;;11.38;;
14153;SDS011;7157;53.144;7.570;2023-07-28T04:58:18;31.95;;;10.98;;
14153;SDS011;7157;53.144;7.570;2023-07-28T05:08:22;34.40;;;11.93;;
14153;SDS011;7157;53.144;7.570;2023-07-28T05:18:25;31.52;;;11.93;;
14153;SDS011;7157;53.144;7.570;2023-07-28T05:28:33;29.50;;;10.90;;
14153;SDS011;7157;53.144;7.570;2023-07-28T05:38:37;31.90;;;11.70;;
14153;SDS011;7157;53.144;7.570;2023-07-28T05:48:41;25.67;;;10.82;;
14153;SDS011;7157;53.144;7.570;2023-07-28T05:58:44;25.45;;;11.25;;
14153;SDS011;7157;53.144;7.570;2023-07-28T06:08:48;19.20;;;9.57;;
14153;SDS011;7157;53.144;7.570;2023-07-28T06:18:50;19.83;;;9.90;;
14153;SDS011;7157;53.144;7.570;2023-07-28T06:28:55;23.63;;;10.50;;
14153;SDS011;7157;53.144;7.570;2023-07-28T06:38:57;20.27;;;8.40;;
14153;SDS011;7157;53.144;7.570;2023-07-28T06:49:01;19.25;;;8.15;;
14153;SDS011;7157;53.144;7.570;2023-07-28T06:59:04;14.85;;;8.20;;
14153;SDS011;7157;53.144;7.570;2023-07-28T07:09:19;17.42;;;8.90;;
14153;SDS011;7157;53.144;7.570;2023-07-28T07:19:21;18.55;;;7.97;;
14153;SDS011;7157;53.144;7.570;2023-07-28T07:29:25;16.88;;;8.30;;
14153;SDS011;7157;53.144;7.570;2023-07-28T07:39:29;16.90;;;7.47;;
14153;SDS011;7157;53.144;7.570;2023-07-28T07:49:33;16.58;;;6.30;;
14153;SDS011;7157;53.144;7.570;2023-07-28T07:59:35;12.45;;;4.65;;
14153;SDS011;7157;53.144;7.570;2023-07-28T08:09:39;7.93;;;3.20;;
14153;SDS011;7157;53.144;7.570;2023-07-28T08:19:42;7.35;;;3.05;;
14153;SDS011;7157;53.144;7.570;2023-07-28T08:29:47;6.47;;;1.95;;
14153;SDS011;7157;53.144;7.570;2023-07-28T08:39:49;4.15;;;2.00;;
14153;SDS011;7157;53.144;7.570;2023-07-28T08:49:53;3.50;;;1.50;;
14153;SDS011;7157;53.144;7.570;2023-07-28T08:59:56;5.07;;;1.73;;
14153;SDS011;7157;53.144;7.570;2023-07-28T09:10:00;4.78;;;1.50;;
14153;SDS011;7157;53.144;7.570;2023-07-28T09:20:04;9.65;;;1.45;;
14153;SDS011;7157;53.144;7.570;2023-07-28T09:30:08;3.78;;;1.50;;
14153;SDS011;7157;53.144;7.570;2023-07-28T09:40:16;3.47;;;1.50;;
14153;SDS011;7157;53.144;7.570;2023-07-28T09:50:22;3.10;;;1.40;;
14153;SDS011;7157;53.144;7.570;2023-07-28T10:00:26;2.70;;;1.35;;
14153;SDS011;7157;53.144;7.570;2023-07-28T10:10:31;2.47;;;1.30;;
14153;SDS011;7157;53.144;7.570;2023-07-28T10:20:35;2.40;;;1.30;;
14153;SDS011;7157;53.144;7.570;2023-07-28T10:30:51;2.88;;;1.13;;
14153;SDS011;7157;53.144;7.570;2023-07-28T10:41:04;4.82;;;1.20;;
14153;SDS011;7157;53.144;7.570;2023-07-28T10:51:10;3.88;;;1.60;;
14153;SDS011;7157;53.144;7.570;2023-07-28T11:01:14;5.30;;;1.40;;
14153;SDS011;7157;53.144;7.570;2023-07-28T11:11:22;3.20;;;1.60;;
14153;SDS011;7157;53.144;7.570;2023-07-28T11:21:26;3.92;;;1.20;;
14153;SDS011;7157;53.144;7.570;2023-07-28T11:31:30;5.15;;;1.52;;
14153;SDS011;7157;53.144;7.570;2023-07-28T11:41:34;4.97;;;1.45;;
14153;SDS011;7157;53.144;7.570;2023-07-28T11:51:39;3.85;;;1.40;;
14153;SDS011;7157;53.144;7.570;2023-07-28T12:01:51;3.45;;;1.30;;
14153;SDS011;7157;53.144;7.570;2023-07-28T12:11:59;3.60;;;1.38;;
14153;SDS011;7157;53.144;7.570;2023-07-28T12:22:03;3.47;;;1.42;;
14153;SDS011;7157;53.144;7.570;2023-07-28T12:32:07;5.15;;;1.15;;
14153;SDS011;7157;53.144;7.570;2023-07-28T12:42:30;3.25;;;1.38;;
14153;SDS011;7157;53.144;7.570;2023-07-28T12:52:37;2.77;;;1.30;;
14153;SDS011;7157;53.144;7.570;2023-07-28T13:02:43;3.42;;;1.48;;
14153;SDS011;7157;53.144;7.570;2023-07-28T13:12:48;3.40;;;1.40;;
14153;SDS011;7157;53.144;7.570;2023-07-28T13:22:52;3.50;;;1.55;;
14153;SDS011;7157;53.144;7.570;2023-07-28T13:32:56;5.90;;;1.60;;
14153;SDS011;7157;53.144;7.570;2023-07-28T13:42:59;3.10;;;1.48;;
14153;SDS011;7157;53.144;7.570;2023-07-28T13:53:07;3.57;;;1.73;;
14153;SDS011;7157;53.144;7.570;2023-07-28T14:03:13;2.60;;;1.40;;
14153;SDS011;7157;53.144;7.570;2023-07-28T14:13:19;4.18;;;1.58;;
14153;SDS011;7157;53.144;7.570;2023-07-28T14:23:22;3.30;;;2.25;;
14153;SDS011;7157;53.144;7.570;2023-07-28T14:33:27;9.93;;;4.32;;
14153;SDS011;7157;53.144;7.570;2023-07-28T14:43:30;11.73;;;4.72;;
14153;SDS011;7157;53.144;7.570;2023-07-28T14:53:34;10.00;;;4.70;;
14153;SDS011;7157;53.144;7.570;2023-07-28T15:03:38;6.45;;;4.00;;
14153;SDS011;7157;53.144;7.570;2023-07-28T15:13:43;10.07;;;3.80;;
14153;SDS011;7157;53.144;7.570;2023-07-28T15:23:52;8.60;;;3.80;;
14153;SDS011;7157;53.144;7.570;2023-07-28T15:33:57;5.22;;;2.58;;
14153;SDS011;7157;53.144;7.570;2023-07-28T15:44:00;8.70;;;3.67;;
14153;SDS011;7157;53.144;7.570;2023-07-28T15:54:04;4.93;;;2.45;;
14153;SDS011;7157;53.144;7.570;2023-07-28T16:04:07;3.63;;;2.00;;
14153;SDS011;7157;53.144;7.570;2023-07-28T16:14:11;2.55;;;1.55;;
14153;SDS011;7157;53.144;7.570;2023-07-28T16:24:14;3.25;;;1.70;;
14153;SDS011;7157;53.144;7.570;2023-07-28T16:34:18;4.45;;;1.80;;
14153;SDS011;7157;53.144;7.570;2023-07-28T16:44:21;2.80;;;1.75;;
14153;SDS011;7157;53.144;7.570;2023-07-28T16:54:25;4.65;;;2.58;;
14153;SDS011;7157;53.144;7.570;2023-07-28T17:04:28;5.30;;;3.00;;
14153;SDS011;7157;53.144;7.570;2023-07-28T17:14:32;5.28;;;2.65;;
14153;SDS011;7157;53.144;7.570;2023-07-28T17:24:35;4.35;;;1.80;;
14153;SDS011;7157;53.144;7.570;2023-07-28T17:34:40;4.13;;;2.00;;
14153;SDS011;7157;53.144;7.570;2023-07-28T17:44:43;3.92;;;2.00;;
14153;SDS011;7157;53.144;7.570;2023-07-28T17:54:46;3.40;;;2.10;;
14153;SDS011;7157;53.144;7.570;2023-07-28T18:04:49;6.20;;;1.90;;
14153;SDS011;7157;53.144;7.570;2023-07-28T18:14:53;4.68;;;2.40;;
14153;SDS011;7157;53.144;7.570;2023-07-28T18:24:56;4.05;;;2.10;;
14153;SDS011;7157;53.144;7.570;2023-07-28T18:35:00;5.72;;;2.00;;
14153;SDS011;7157;53.144;7.570;2023-07-28T18:45:03;4.70;;;2.90;;
14153;SDS011;7157;53.144;7.570;2023-07-28T18:55:08;3.30;;;2.28;;
14153;SDS011;7157;53.144;7.570;2023-07-28T19:05:11;5.45;;;2.38;;
14153;SDS011;7157;53.144;7.570;2023-07-28T19:15:15;6.13;;;2.97;;
14153;SDS011;7157;53.144;7.570;2023-07-28T19:25:38;5.00;;;3.20;;
14153;SDS011;7157;53.144;7.570;2023-07-28T19:35:42;7.60;;;3.90;;
14153;SDS011;7157;53.144;7.570;2023-07-28T19:45:47;6.15;;;3.83;;
14153;SDS011;7157;53.144;7.570;2023-07-28T19:55:53;8.15;;;3.80;;
14153;SDS011;7157;53.144;7.570;2023-07-28T20:05:55;8.13;;;3.53;;
14153;SDS011;7157;53.144;7.570;2023-07-28T20:15:59;7.25;;;4.35;;
14153;SDS011;7157;53.144;7.570;2023-07-28T20:26:02;7.45;;;4.47;;
14153;SDS011;7157;53.144;7.570;2023-07-28T20:36:07;7.15;;;4.43;;
14153;SDS011;7157;53.144;7.570;2023-07-28T20:46:10;6.90;;;4.18;;
14153;SDS011;7157;53.144;7.570;2023-07-28T20:56:14;8.23;;;4.15;;
14153;SDS011;7157;53.144;7.570;2023-07-28T21:06:17;6.50;;;4.00;;
14153;SDS011;7157;53.144;7.570;2023-07-28T21:16:21;7.72;;;4.43;;
14153;SDS011;7157;53.144;7.570;2023-07-28T21:26:24;7.35;;;4.20;;
14153;SDS011;7157;53.144;7.570;2023-07-28T21:36:28;7.97;;;4.95;;
14153;SDS011;7157;53.144;7.570;2023-07-28T21:46:31;9.68;;;4.47;;
14153;SDS011;7157;53.144;7.570;2023-07-28T21:56:36;8.02;;;5.00;;
14153;SDS011;7157;53.144;7.570;2023-07-28T22:06:39;10.45;;;5.35;;
14153;SDS011;7157;53.144;7.570;2023-07-28T22:16:43;6.32;;;4.60;;
14153;SDS011;7157;53.144;7.570;2023-07-28T22:26:46;8.55;;;5.45;;
14153;SDS011;7157;53.144;7.570;2023-07-28T22:36:50;9.85;;;5.07;;
14153;SDS011;7157;53.144;7.570;2023-07-28T22:46:52;7.35;;;4.97;;
14153;SDS011;7157;53.144;7.570;2023-07-28T22:56:57;8.63;;;5.15;;
14153;SDS011;7157;53.144;7.570;2023-07-28T23:06:59;8.73;;;4.90;;
14153;SDS011;7157;53.144;7.570;2023-07-28T23:17:04;9.45;;;5.15;;
14153;SDS011;7157;53.144;7.570;2023-07-28T23:27:06;9.10;;;5.40;;
14153;SDS011;7157;53.144;7.570;2023-07-28T23:37:11;9.45;;;6.05;;
14153;SDS011;7157;53.144;7.570;2023-07-28T23:47:13;10.80;;;6.18;;
14153;SDS011;7157;53.144;7.570;2023-07-28T23:57:18;10.48;;;5.70;;
